logo
Search for airport 
image banner adimage banner adimage banner ad
image banner ad

VERC - Birsa Munda Airport, Ranchi

Located in Ranchi, India

ICAO - VERC, IATA - IXR

Data provided by Airmate  

General information

Coordinates: N23°18'51" E85°19'16"
Elevation is 2148 feet MSL.
 
View others Airports in Jharkhand

Operational data

Special qualification required
Current time UTC:
Current local time:
Weather
METAR: VERC 251600Z 22004KT 2500 TS SCT018 FEW030CB BKN100 26/25 Q0999 NOSIG
TAF: TAF VERC 251100Z 2512/2521 20005KT 3200 -TSRA BR FEW012 SCT018 FEW030CB OVC080 BECMG 2518/2520 2500 BR SCT012 SCT018 BKN100
View NOTAMs / SUP AIP / TFR affecting this airport [VIEW]
Communications frequencies: [VIEW]

Runways:

RWY identifierQFULength (ft)Width (ft)SurfaceLDA (ft)
13131°9016148ASP
31311°9016148ASP

Airport contact information

Address: Ranchi India

Satellite view of VERC